createdAt,value
2019-05-17T00:02:30.500Z,33.40
2019-05-17T00:05:06.877Z,32.70
2019-05-17T00:07:39.546Z,40.67
2019-05-17T00:10:17.016Z,36.23
2019-05-17T00:12:49.082Z,27.40
2019-05-17T00:15:21.079Z,28.23
2019-05-17T00:17:53.969Z,26.67
2019-05-17T00:20:32.099Z,23.50
2019-05-17T00:23:06.983Z,29.40
2019-05-17T00:25:41.279Z,22.53
2019-05-17T00:28:13.523Z,25.50
2019-05-17T00:30:50.087Z,21.93
2019-05-17T00:33:22.515Z,23.70
2019-05-17T00:35:56.291Z,22.23
2019-05-17T00:38:30.998Z,28.07
2019-05-17T00:41:07.181Z,23.17
2019-05-17T00:43:38.757Z,20.57
2019-05-17T00:46:11.102Z,22.43
2019-05-17T00:48:46.624Z,34.23
2019-05-17T00:51:19.571Z,27.67
2019-05-17T00:53:50.943Z,28.40
2019-05-17T00:56:22.823Z,31.90
2019-05-17T00:58:57.666Z,29.10
2019-05-17T01:01:30.435Z,26.97
2019-05-17T01:04:03.219Z,35.13
2019-05-17T01:06:37.526Z,37.07
2019-05-17T01:09:10.480Z,31.23
2019-05-17T01:11:44.227Z,37.37
2019-05-17T01:14:17.610Z,31.00
2019-05-17T01:19:20.902Z,30.60
2019-05-17T01:21:58.179Z,37.93
2019-05-17T01:27:00.840Z,39.10
2019-05-17T01:29:33.246Z,36.37
2019-05-17T01:32:06.760Z,38.30
2019-05-17T01:34:41.114Z,37.73
2019-05-17T01:37:17.172Z,39.97
2019-05-17T01:39:52.225Z,35.33
2019-05-17T01:42:29.185Z,36.40
2019-05-17T01:45:01.147Z,31.30
2019-05-17T01:47:33.630Z,33.30
2019-05-17T01:50:07.577Z,30.67
2019-05-17T01:52:40.598Z,28.53
2019-05-17T01:55:12.926Z,33.63
2019-05-17T01:57:47.382Z,38.43
2019-05-17T02:00:31.009Z,40.67
2019-05-17T02:03:03.898Z,35.70
2019-05-17T02:05:37.290Z,44.03
2019-05-17T02:08:10.622Z,38.40
2019-05-17T02:10:42.500Z,34.83
2019-05-17T02:13:16.423Z,38.80
2019-05-17T02:15:48.974Z,40.17
2019-05-17T02:18:21.791Z,43.73
2019-05-17T02:20:53.729Z,40.80
2019-05-17T02:23:27.018Z,39.53
2019-05-17T02:26:00.510Z,40.57
2019-05-17T02:28:33.235Z,48.00
2019-05-17T02:31:06.341Z,47.40
2019-05-17T02:33:42.779Z,53.07
2019-05-17T02:36:14.185Z,64.07
2019-05-17T02:38:46.454Z,51.47
2019-05-17T02:41:22.745Z,54.15
2019-05-17T02:43:53.880Z,42.47
2019-05-17T02:46:26.695Z,35.55
2019-05-17T02:49:03.185Z,33.90
2019-05-17T02:51:34.693Z,37.30
2019-05-17T02:54:08.219Z,39.90
2019-05-17T02:56:43.650Z,38.70
2019-05-17T02:59:14.661Z,34.93
2019-05-17T03:01:46.755Z,34.77
2019-05-17T03:04:19.523Z,33.27
2019-05-17T03:06:53.302Z,36.07
2019-05-17T03:09:25.872Z,45.73
2019-05-17T03:11:57.760Z,38.97
2019-05-17T03:14:32.750Z,43.47
2019-05-17T03:17:04.169Z,32.23
2019-05-17T03:19:35.702Z,35.80
2019-05-17T03:22:08.069Z,34.27
2019-05-17T03:24:39.837Z,43.30
2019-05-17T03:27:13.420Z,41.40
2019-05-17T03:29:45.159Z,35.57
2019-05-17T03:32:18.191Z,38.93
2019-05-17T03:34:56.153Z,41.20
2019-05-17T03:37:30.098Z,40.30
2019-05-17T03:39:58.299Z,40.67
2019-05-17T03:42:33.087Z,40.77
2019-05-17T03:45:05.271Z,40.87
2019-05-17T03:47:37.842Z,44.67
2019-05-17T03:50:13.415Z,47.63
2019-05-17T03:52:47.199Z,41.27
2019-05-17T03:55:18.579Z,43.47
2019-05-17T03:57:53.231Z,43.90
2019-05-17T04:00:26.072Z,43.73
2019-05-17T04:03:08.913Z,38.67
2019-05-17T04:05:42.901Z,38.37
2019-05-17T04:08:14.421Z,35.00
2019-05-17T04:10:46.781Z,34.07
2019-05-17T04:13:23.425Z,39.10
2019-05-17T04:15:55.932Z,39.70
2019-05-17T04:18:28.158Z,39.33
2019-05-17T04:21:03.487Z,36.77
2019-05-17T04:23:35.170Z,34.73
2019-05-17T04:26:07.562Z,35.70
2019-05-17T04:28:44.059Z,37.70
2019-05-17T04:31:15.279Z,37.77
2019-05-17T04:33:48.833Z,40.50
2019-05-17T04:36:22.508Z,38.27
2019-05-17T04:38:54.776Z,39.63
2019-05-17T04:41:41.490Z,35.17
2019-05-17T04:44:02.883Z,36.90
2019-05-17T04:46:34.883Z,37.57
2019-05-17T04:49:07.424Z,34.73
2019-05-17T04:51:43.510Z,35.37
2019-05-17T04:54:15.613Z,36.70
2019-05-17T04:56:47.738Z,35.07
2019-05-17T04:59:24.317Z,35.23
2019-05-17T05:01:56.297Z,33.97
2019-05-17T05:04:28.233Z,34.37
2019-05-17T05:07:02.903Z,35.63
2019-05-17T05:09:33.300Z,33.63
2019-05-17T05:12:06.602Z,34.47
2019-05-17T05:14:39.065Z,32.13
2019-05-17T05:17:12.766Z,30.33
2019-05-17T05:19:44.321Z,32.13
2019-05-17T05:22:17.567Z,35.33
2019-05-17T05:24:52.361Z,42.63
2019-05-17T05:27:23.786Z,39.50
2019-05-17T05:29:55.300Z,40.20
2019-05-17T05:32:28.448Z,40.90
2019-05-17T05:35:03.104Z,49.53
2019-05-17T05:37:36.286Z,42.77
2019-05-17T05:40:07.987Z,43.20
2019-05-17T05:42:42.258Z,37.43
2019-05-17T05:45:14.931Z,34.20
2019-05-17T05:47:47.867Z,42.57
2019-05-17T05:50:21.863Z,41.20
2019-05-17T05:52:54.329Z,42.70
2019-05-17T05:55:27.360Z,41.60
2019-05-17T05:58:04.609Z,42.43
2019-05-17T06:00:38.551Z,49.70
2019-05-17T06:03:12.086Z,53.50
2019-05-17T06:05:44.852Z,43.67
2019-05-17T06:08:28.474Z,39.17
2019-05-17T06:11:02.507Z,40.63
2019-05-17T06:13:35.863Z,38.07
2019-05-17T06:16:08.612Z,36.80
2019-05-17T06:18:42.549Z,37.13
2019-05-17T06:21:19.688Z,35.83
2019-05-17T06:23:52.436Z,38.77
2019-05-17T06:26:26.420Z,34.13
2019-05-17T06:28:59.084Z,33.40
2019-05-17T06:31:33.294Z,40.50
2019-05-17T06:34:05.589Z,32.73
2019-05-17T06:36:38.039Z,37.83
2019-05-17T06:39:11.732Z,41.03
2019-05-17T06:41:43.757Z,37.23
2019-05-17T06:44:16.254Z,29.60
2019-05-17T06:46:51.914Z,28.70
2019-05-17T06:49:24.147Z,29.87
2019-05-17T06:51:56.691Z,32.20
2019-05-17T06:54:32.687Z,32.70
2019-05-17T06:57:05.667Z,31.67
2019-05-17T06:59:37.634Z,26.87
2019-05-17T07:02:10.720Z,28.83
2019-05-17T07:04:43.854Z,27.20
2019-05-17T07:07:30.739Z,28.33
2019-05-17T07:10:06.790Z,24.03
2019-05-17T07:12:54.406Z,31.53
2019-05-17T07:15:16.412Z,29.13
2019-05-17T07:17:50.405Z,31.17
2019-05-17T07:20:25.567Z,42.57
2019-05-17T07:23:00.624Z,41.73
2019-05-17T07:25:35.199Z,45.90
2019-05-17T07:28:10.171Z,41.00
2019-05-17T07:30:42.799Z,52.17
2019-05-17T07:33:15.074Z,39.40
2019-05-17T07:35:50.221Z,37.57
2019-05-17T07:38:22.270Z,43.80
2019-05-17T07:40:56.602Z,40.00
2019-05-17T07:43:29.803Z,34.13
2019-05-17T07:46:01.996Z,37.73
2019-05-17T07:48:34.730Z,42.53
2019-05-17T07:51:09.970Z,30.27
2019-05-17T07:53:42.334Z,34.60
2019-05-17T07:56:16.032Z,29.40
2019-05-17T07:58:49.368Z,30.60
2019-05-17T08:01:22.499Z,37.47
2019-05-17T08:03:55.394Z,41.47
2019-05-17T08:06:30.534Z,37.90
2019-05-17T08:09:04.375Z,41.53
2019-05-17T08:11:39.683Z,39.57
2019-05-17T08:14:29.441Z,34.23
2019-05-17T08:16:55.575Z,37.20
2019-05-17T08:19:40.133Z,33.47
2019-05-17T08:22:16.397Z,33.50
2019-05-17T08:24:50.757Z,30.37
2019-05-17T08:27:24.651Z,36.60
2019-05-17T08:30:00.072Z,35.07
2019-05-17T08:32:32.607Z,31.13
2019-05-17T08:35:10.470Z,36.03
2019-05-17T08:37:44.614Z,33.13
2019-05-17T08:40:19.995Z,35.60
2019-05-17T08:42:57.284Z,34.30
2019-05-17T08:45:35.958Z,37.17
2019-05-17T08:48:10.623Z,35.17
2019-05-17T08:50:44.969Z,31.80
2019-05-17T08:53:21.123Z,34.70
2019-05-17T08:55:54.263Z,43.30
2019-05-17T08:58:26.908Z,41.53
2019-05-17T09:01:00.609Z,38.53
2019-05-17T09:03:32.533Z,39.37
2019-05-17T09:06:04.357Z,42.10
2019-05-17T09:08:40.496Z,51.37
2019-05-17T09:11:13.910Z,42.23
2019-05-17T09:13:57.225Z,39.77
2019-05-17T09:16:20.719Z,43.27
2019-05-17T09:18:54.594Z,48.07
2019-05-17T09:21:31.428Z,40.70
2019-05-17T09:24:04.095Z,39.93
2019-05-17T09:26:40.014Z,39.77
2019-05-17T09:29:13.107Z,46.30
2019-05-17T09:31:50.371Z,53.63
2019-05-17T09:34:21.954Z,48.17
2019-05-17T09:37:09.735Z,45.13
2019-05-17T09:39:44.431Z,44.50
2019-05-17T09:42:16.751Z,49.10
2019-05-17T09:44:49.747Z,53.67
2019-05-17T09:47:21.384Z,47.47
2019-05-17T09:49:54.562Z,49.97
2019-05-17T09:52:29.324Z,52.07
2019-05-17T09:55:02.614Z,47.73
2019-05-17T09:57:37.121Z,46.57
2019-05-17T10:00:11.008Z,52.47
2019-05-17T10:02:43.898Z,40.40
2019-05-17T10:05:16.585Z,46.27
2019-05-17T10:07:50.726Z,43.97
2019-05-17T10:10:26.303Z,50.47
2019-05-17T10:13:00.295Z,64.73
2019-05-17T10:15:34.450Z,57.00
2019-05-17T10:18:11.178Z,48.93
2019-05-17T10:20:44.024Z,51.10
2019-05-17T10:23:19.524Z,43.50
2019-05-17T10:25:52.682Z,42.97
2019-05-17T10:28:29.101Z,59.40
2019-05-17T10:31:02.455Z,78.67
2019-05-17T10:33:35.990Z,46.80
2019-05-17T10:36:09.080Z,45.87
2019-05-17T10:38:41.817Z,43.77
2019-05-17T10:41:14.338Z,43.23
2019-05-17T10:43:49.911Z,42.80
2019-05-17T10:46:22.289Z,45.50
2019-05-17T10:48:54.281Z,38.87
2019-05-17T10:51:26.810Z,36.33
2019-05-17T10:54:00.467Z,33.83
2019-05-17T10:56:34.822Z,33.43
2019-05-17T10:59:09.870Z,40.70
2019-05-17T11:01:43.350Z,36.30
2019-05-17T11:04:19.755Z,41.77
2019-05-17T11:06:54.295Z,32.33
2019-05-17T11:09:27.574Z,37.13
2019-05-17T11:11:59.965Z,44.23
2019-05-17T11:14:33.036Z,44.20
2019-05-17T11:17:11.049Z,40.47
2019-05-17T11:19:44.498Z,41.37
2019-05-17T11:22:17.594Z,40.10
2019-05-17T11:24:50.986Z,43.37
2019-05-17T11:27:23.823Z,39.07
2019-05-17T11:29:57.030Z,45.77
2019-05-17T11:32:29.928Z,44.90
2019-05-17T11:35:02.742Z,42.80
2019-05-17T11:37:36.721Z,43.37
2019-05-17T11:40:12.775Z,44.63
2019-05-17T11:42:47.650Z,41.80
2019-05-17T11:45:32.712Z,47.77
2019-05-17T11:48:05.718Z,59.53
2019-05-17T11:50:38.418Z,55.57
2019-05-17T11:53:11.011Z,57.63
2019-05-17T11:55:45.601Z,71.40
2019-05-17T11:58:18.949Z,66.83
2019-05-17T12:00:51.403Z,54.27
2019-05-17T12:03:26.691Z,57.27
2019-05-17T12:05:58.834Z,57.03
2019-05-17T12:08:32.449Z,52.87
2019-05-17T12:11:05.435Z,52.40
2019-05-17T12:13:37.250Z,49.10
2019-05-17T12:16:10.613Z,52.80
2019-05-17T12:18:46.414Z,49.57
2019-05-17T12:21:22.206Z,52.47
2019-05-17T12:23:54.503Z,50.67
2019-05-17T12:26:27.203Z,53.27
2019-05-17T12:29:00.528Z,65.60
2019-05-17T12:31:33.003Z,59.13
2019-05-17T12:34:08.011Z,118.77
2019-05-17T12:36:41.048Z,88.63
2019-05-17T12:39:13.854Z,69.83
2019-05-17T12:41:46.832Z,64.83
2019-05-17T12:44:20.000Z,55.70
2019-05-17T12:46:54.203Z,54.63
2019-05-17T12:49:27.810Z,48.33
2019-05-17T12:52:02.910Z,58.77
2019-05-17T12:54:36.704Z,33.17
2019-05-17T12:57:09.629Z,33.77
2019-05-17T12:59:42.210Z,30.07
2019-05-17T13:02:14.660Z,86.20
2019-05-17T13:04:48.224Z,126.90
2019-05-17T13:07:21.765Z,39.87
2019-05-17T13:09:55.141Z,45.10
2019-05-17T13:12:28.223Z,42.43
2019-05-17T13:15:03.007Z,39.07
2019-05-17T13:17:37.308Z,41.90
2019-05-17T13:20:09.921Z,41.53
2019-05-17T13:22:45.391Z,46.97
2019-05-17T13:25:18.549Z,48.47
2019-05-17T13:27:54.255Z,39.03
2019-05-17T13:30:27.899Z,40.67
2019-05-17T13:33:02.462Z,38.00
2019-05-17T13:35:35.395Z,39.57
2019-05-17T13:38:09.645Z,42.93
2019-05-17T13:40:43.909Z,42.00
2019-05-17T13:43:18.417Z,42.80
2019-05-17T13:45:51.873Z,38.97
2019-05-17T13:48:24.094Z,40.30
2019-05-17T13:50:58.560Z,37.60
2019-05-17T13:53:31.163Z,41.33
2019-05-17T13:56:04.991Z,42.07
2019-05-17T13:58:37.901Z,76.70
2019-05-17T14:01:11.759Z,50.07
2019-05-17T14:03:46.595Z,52.17
2019-05-17T14:06:24.131Z,55.47
2019-05-17T14:08:55.582Z,48.73
2019-05-17T14:11:27.842Z,46.60
2019-05-17T14:13:59.719Z,48.73
2019-05-17T14:16:34.048Z,54.40
2019-05-17T14:19:05.673Z,58.30
2019-05-17T14:21:38.828Z,48.37
2019-05-17T14:24:13.931Z,57.70
2019-05-17T14:26:48.102Z,44.60
2019-05-17T14:29:22.349Z,43.90
2019-05-17T14:32:00.284Z,38.20
2019-05-17T14:34:39.643Z,34.93
2019-05-17T14:37:13.969Z,33.87
2019-05-17T14:39:46.854Z,41.10
2019-05-17T14:42:20.615Z,38.70
2019-05-17T14:44:58.403Z,32.43
2019-05-17T14:47:33.572Z,33.07
2019-05-17T14:50:06.627Z,31.70
2019-05-17T14:52:42.826Z,33.93
2019-05-17T14:55:19.294Z,29.83
2019-05-17T14:57:52.282Z,41.17
2019-05-17T15:00:26.031Z,44.67
2019-05-17T15:02:58.457Z,28.83
2019-05-17T15:05:30.284Z,33.00
2019-05-17T15:08:02.958Z,33.53
2019-05-17T15:10:36.850Z,34.97
2019-05-17T15:13:14.564Z,31.57
2019-05-17T15:15:48.118Z,38.17
2019-05-17T15:18:20.687Z,33.50
2019-05-17T15:20:54.885Z,35.60
2019-05-17T15:23:38.716Z,35.40
2019-05-17T15:26:12.323Z,31.70
2019-05-17T15:28:44.384Z,29.90
2019-05-17T15:31:17.353Z,30.20
2019-05-17T15:33:50.661Z,28.80
2019-05-17T15:36:25.488Z,31.23
2019-05-17T15:38:59.839Z,27.27
2019-05-17T15:41:33.605Z,27.87
2019-05-17T15:44:07.399Z,30.10
2019-05-17T15:46:41.224Z,28.33
2019-05-17T15:49:15.071Z,27.10
2019-05-17T15:51:48.070Z,31.80
2019-05-17T15:54:21.642Z,28.47
2019-05-17T15:56:56.108Z,25.13
2019-05-17T15:59:30.014Z,26.70
2019-05-17T16:02:05.472Z,24.83
2019-05-17T16:04:38.719Z,23.90
2019-05-17T16:07:14.340Z,27.10
2019-05-17T16:09:47.604Z,26.10
2019-05-17T16:12:21.916Z,29.50
2019-05-17T16:14:55.213Z,27.30
2019-05-17T16:17:28.350Z,26.37
2019-05-17T16:20:01.733Z,24.50
2019-05-17T16:22:35.823Z,26.00
2019-05-17T16:25:09.534Z,28.30
2019-05-17T16:27:43.427Z,27.13
2019-05-17T16:30:17.738Z,24.00
2019-05-17T16:32:51.394Z,26.83
2019-05-17T16:35:25.187Z,24.60
2019-05-17T16:37:59.181Z,26.47
2019-05-17T16:40:31.618Z,25.37
2019-05-17T16:43:17.782Z,25.30
2019-05-17T16:45:42.666Z,23.90
2019-05-17T16:48:16.443Z,25.57
2019-05-17T16:50:51.782Z,25.03
2019-05-17T16:53:25.007Z,24.33
2019-05-17T16:55:57.858Z,25.10
2019-05-17T16:58:31.781Z,27.33
2019-05-17T17:01:03.918Z,29.03
2019-05-17T17:03:44.418Z,32.77
2019-05-17T17:06:12.144Z,22.23
2019-05-17T17:08:45.927Z,24.67
2019-05-17T17:11:20.123Z,26.30
2019-05-17T17:13:53.568Z,23.17
2019-05-17T17:16:26.355Z,22.73
2019-05-17T17:18:59.141Z,22.63
2019-05-17T17:21:31.503Z,24.30
2019-05-17T17:24:04.349Z,31.67
2019-05-17T17:26:38.625Z,29.30
2019-05-17T17:29:11.645Z,32.13
2019-05-17T17:31:44.918Z,35.33
2019-05-17T17:34:17.291Z,34.73
2019-05-17T17:36:50.394Z,36.53
2019-05-17T17:39:22.829Z,36.47
2019-05-17T17:41:55.446Z,37.47
2019-05-17T17:44:30.182Z,39.90
2019-05-17T17:47:02.633Z,39.57
2019-05-17T17:49:36.673Z,38.20
2019-05-17T17:52:09.653Z,43.50
2019-05-17T17:54:42.889Z,41.30
2019-05-17T17:57:15.646Z,41.03
2019-05-17T17:59:48.463Z,42.93
2019-05-17T18:02:22.702Z,42.40
2019-05-17T18:04:55.667Z,41.47
2019-05-17T18:07:29.955Z,46.57
2019-05-17T18:10:02.835Z,41.53
2019-05-17T18:12:36.710Z,43.47
2019-05-17T18:15:11.785Z,54.77
2019-05-17T18:17:45.373Z,55.37
2019-05-17T18:20:19.069Z,45.27
2019-05-17T18:22:53.020Z,56.47
2019-05-17T18:25:27.934Z,66.97
2019-05-17T18:28:00.704Z,55.17
2019-05-17T18:30:33.195Z,53.93
2019-05-17T18:33:05.227Z,57.33
2019-05-17T18:35:39.391Z,55.57
2019-05-17T18:38:11.968Z,52.90
2019-05-17T18:40:45.167Z,52.97
2019-05-17T18:43:19.845Z,62.03
2019-05-17T18:45:53.976Z,73.37
2019-05-17T18:48:27.249Z,96.60
2019-05-17T18:51:01.317Z,88.67
2019-05-17T18:53:33.913Z,73.87
2019-05-17T18:56:07.290Z,59.97
2019-05-17T18:58:40.382Z,52.93
2019-05-17T19:01:13.708Z,53.33
2019-05-17T19:03:46.227Z,55.90
2019-05-17T19:06:19.005Z,66.87
2019-05-17T19:08:51.918Z,54.00
2019-05-17T19:11:26.044Z,59.10
2019-05-17T19:14:00.002Z,55.67
2019-05-17T19:16:33.013Z,60.20
2019-05-17T19:19:05.831Z,60.20
2019-05-17T19:21:39.740Z,56.57
2019-05-17T19:24:13.575Z,58.50
2019-05-17T19:26:49.212Z,55.70
2019-05-17T19:29:23.437Z,55.00
2019-05-17T19:31:57.402Z,51.97
2019-05-17T19:34:32.589Z,51.90
2019-05-17T19:37:06.159Z,52.67
2019-05-17T19:39:40.892Z,54.97
2019-05-17T19:42:13.761Z,54.70
2019-05-17T19:44:58.633Z,57.37
2019-05-17T19:47:23.133Z,59.47
2019-05-17T19:49:57.191Z,58.73
2019-05-17T19:52:32.769Z,53.77
2019-05-17T19:55:07.450Z,59.90
2019-05-17T19:57:41.407Z,64.30
2019-05-17T20:00:35.966Z,56.17
2019-05-17T20:03:08.918Z,67.67
2019-05-17T20:05:41.809Z,61.53
2019-05-17T20:08:15.587Z,65.80
2019-05-17T20:10:51.658Z,67.90
2019-05-17T20:13:26.943Z,64.10
2019-05-17T20:16:00.296Z,64.10
2019-05-17T20:18:33.815Z,73.00
2019-05-17T20:21:05.725Z,68.60
2019-05-17T20:23:38.198Z,76.10
2019-05-17T20:26:11.597Z,78.23
2019-05-17T20:28:45.447Z,93.40
2019-05-17T20:31:18.316Z,88.30
2019-05-17T20:33:53.323Z,85.93
2019-05-17T20:36:26.254Z,77.37
2019-05-17T20:38:59.865Z,75.13
2019-05-17T20:41:33.925Z,80.23
2019-05-17T20:44:08.233Z,86.83
2019-05-17T20:46:42.631Z,85.13
2019-05-17T20:49:15.302Z,80.77
2019-05-17T20:51:51.151Z,81.50
2019-05-17T20:54:24.486Z,81.07
2019-05-17T20:56:57.939Z,79.30
2019-05-17T20:59:33.333Z,75.97
2019-05-17T21:02:05.851Z,73.27
2019-05-17T21:04:38.981Z,68.03
2019-05-17T21:07:14.071Z,63.87
2019-05-17T21:09:51.930Z,59.57
2019-05-17T21:12:25.178Z,61.30
2019-05-17T21:14:58.871Z,59.00
2019-05-17T21:17:32.581Z,63.83
2019-05-17T21:20:06.395Z,68.70
2019-05-17T21:22:38.794Z,65.10
2019-05-17T21:25:13.375Z,65.63
2019-05-17T21:27:46.659Z,63.33
2019-05-17T21:30:20.680Z,62.67
2019-05-17T21:32:53.344Z,68.50
2019-05-17T21:35:25.816Z,70.03
2019-05-17T21:38:03.008Z,72.63
2019-05-17T21:40:36.205Z,71.20
2019-05-17T21:43:09.338Z,68.57
2019-05-17T21:45:42.291Z,73.13
2019-05-17T21:48:16.096Z,73.03
2019-05-17T21:50:48.719Z,70.77
2019-05-17T21:53:22.846Z,67.07
2019-05-17T21:55:57.623Z,67.87
2019-05-17T21:58:33.078Z,73.27
2019-05-17T22:01:13.673Z,73.83
2019-05-17T22:03:56.318Z,84.30
2019-05-17T22:06:29.045Z,83.70
2019-05-17T22:09:02.427Z,81.63
2019-05-17T22:11:39.686Z,80.80
2019-05-17T22:14:11.763Z,83.30
2019-05-17T22:16:45.444Z,77.43
2019-05-17T22:19:19.807Z,76.40
2019-05-17T22:21:52.479Z,78.97
2019-05-17T22:24:25.679Z,83.07
2019-05-17T22:26:58.915Z,89.73
2019-05-17T22:29:32.153Z,86.73
2019-05-17T22:32:05.209Z,82.20
2019-05-17T22:34:38.986Z,80.70
2019-05-17T22:37:11.382Z,77.47
2019-05-17T22:39:44.731Z,75.80
2019-05-17T22:42:18.099Z,77.97
2019-05-17T22:44:52.870Z,74.40
2019-05-17T22:47:26.646Z,72.53
2019-05-17T22:49:59.935Z,71.43
2019-05-17T22:52:33.147Z,73.63
2019-05-17T22:55:06.166Z,67.87
2019-05-17T22:57:39.081Z,68.50
2019-05-17T23:00:13.091Z,72.30
2019-05-17T23:02:47.138Z,82.80
2019-05-17T23:05:25.863Z,73.30
2019-05-17T23:07:54.796Z,73.07
2019-05-17T23:10:27.907Z,73.83
2019-05-17T23:13:02.234Z,75.33
2019-05-17T23:15:55.362Z,79.97
2019-05-17T23:18:27.403Z,88.10
2019-05-17T23:21:00.327Z,78.37
2019-05-17T23:23:32.324Z,75.20
2019-05-17T23:26:05.731Z,77.83
2019-05-17T23:28:38.515Z,84.43
2019-05-17T23:31:11.494Z,74.17
2019-05-17T23:33:44.146Z,72.43
2019-05-17T23:36:17.953Z,76.10
2019-05-17T23:38:50.950Z,71.43
2019-05-17T23:41:23.772Z,76.77
2019-05-17T23:43:56.919Z,74.07
2019-05-17T23:46:29.604Z,70.90
2019-05-17T23:49:01.791Z,72.73
2019-05-17T23:51:34.216Z,74.43
2019-05-17T23:54:07.343Z,76.03
2019-05-17T23:56:42.133Z,82.10
2019-05-17T23:59:14.072Z,78.17
